Greeley, IA

10:50 AM CST on November 21, 2014 (GMT -0600)
Dubuque Regional | Change Station
CLOSE
Current Station
Airport
Location: Dubuque,
Elevation: 1079 ft
Nearby Weather Stations
Active Advisory: Freezing Rain Advisory Active Notice: Record Report

Elev 1079 ft 42.40 °N, 90.70 °W | Updated 57 minutes ago

Clear
Clear
18 °F
Feels Like 4 °F
N
14
Wind Variable Wind from South

Today
High -- | Low -- °F
--% Chance of Precip.
Yesterday
High -- | Low -- °F
Precip. -- in
7:04 AM 4:37 PM
Waning Crescent, 1% visible
Pressure 30.41 in
Visibility 10.0 miles
Clouds Clear
Windchill 4 °F
Dew Point 8 °F
Humidity 65%
Rainfall 0.00 in
Snow Depth Not available.
UV 2 out of 12
Pollen .10 out of 12
Air Quality Not available.
Flu Activity Not available.
METAR KDBQ 211553Z 17012KT 10SM CLR M08/M13 A3035 RMK AO2 SLP298 T10781133

More Conditions Fewer Conditions

Pressure 30.41 in
Visibility 10.0 miles
Clouds Clear
Windchill 4 °F
Dew Point 8 °F
Humidity 65%
Rainfall 0.00 in
Snow Depth Not available.
UV 2 out of 12
Pollen .10 out of 12
Air Quality Not available.
Flu Activity Not available.
METAR KDBQ 211553Z 17012KT 10SM CLR M08/M13 A3035 RMK AO2 SLP298 T10781133

More Conditions Fewer Conditions

10-Day Weather Forecast

Almanac

Astronomy

Nov. 21, 2014 Rise Set
Actual Time
Civil Twilight
Nautical Twilight
Astronomical Twilight
Moon
Length of Visible Light
Length of Day
Tomorrow will be .
, % of the Moon is Illuminated

Today's Extremes

State Highs State Lows

Community

WunderPhotos

Upload Photos

1,772,687 photos uploaded!

WunderBlogs® & News

Nearby

Air Quality

  Air Quality AQ Index Pollutant
Not available.

Snow Depth

Station Depth Elevation

Earthquake Activity

City Distance Mag. Time & Date
Minimum magnitude displayed is 2.5.

Coastal Water Temperatures

Place Temperature

Nearby Weather Stations